createdAt,value
2022-10-13T00:01:49.359Z,58.06
2022-10-13T00:04:15.920Z,57.90
2022-10-13T00:06:42.503Z,58.37
2022-10-13T00:09:09.070Z,58.28
2022-10-13T00:11:35.666Z,57.91
2022-10-13T00:14:04.193Z,57.87
2022-10-13T00:16:31.953Z,58.32
2022-10-13T00:18:58.855Z,58.33
2022-10-13T00:21:27.653Z,58.05
2022-10-13T00:23:54.575Z,58.31
2022-10-13T00:26:22.971Z,57.60
2022-10-13T00:28:52.909Z,58.44
2022-10-13T00:31:22.295Z,58.18
2022-10-13T00:33:52.984Z,57.95
2022-10-13T00:36:21.320Z,58.30
2022-10-13T00:38:47.980Z,58.00
2022-10-13T00:41:14.963Z,58.32
2022-10-13T00:43:53.041Z,58.11
2022-10-13T00:46:20.613Z,57.75
2022-10-13T00:48:47.614Z,57.96
2022-10-13T00:51:16.686Z,57.90
2022-10-13T00:53:44.145Z,58.16
2022-10-13T00:56:11.982Z,58.07
2022-10-13T00:58:39.244Z,57.53
2022-10-13T01:01:07.435Z,57.95
2022-10-13T01:03:34.306Z,57.96
2022-10-13T01:06:02.826Z,57.70
2022-10-13T01:08:30.080Z,57.80
2022-10-13T01:11:19.448Z,57.71
2022-10-13T01:14:14.902Z,57.43
2022-10-13T01:17:11.517Z,57.42
2022-10-13T01:19:50.109Z,57.71
2022-10-13T01:22:34.685Z,58.17
2022-10-13T01:25:17.123Z,57.56
2022-10-13T01:28:02.948Z,57.74
2022-10-13T01:30:32.179Z,57.41
2022-10-13T01:33:25.868Z,57.47
2022-10-13T01:36:06.970Z,58.00
2022-10-13T01:38:42.962Z,57.95
2022-10-13T01:41:20.829Z,58.11
2022-10-13T01:43:58.117Z,57.54
2022-10-13T01:46:30.944Z,57.89
2022-10-13T01:49:00.038Z,58.00
2022-10-13T01:51:28.265Z,58.16
2022-10-13T01:53:55.037Z,57.77
2022-10-13T01:56:21.624Z,58.13
2022-10-13T01:58:50.401Z,58.27
2022-10-13T02:01:38.606Z,57.70
2022-10-13T02:04:26.278Z,58.16
2022-10-13T02:07:01.453Z,57.72
2022-10-13T02:09:43.953Z,57.99
2022-10-13T02:12:42.600Z,57.92
2022-10-13T02:15:13.147Z,58.00
2022-10-13T02:17:40.456Z,58.02
2022-10-13T02:20:07.817Z,58.14
2022-10-13T02:22:38.982Z,58.74
2022-10-13T02:25:06.138Z,58.15
2022-10-13T02:27:32.870Z,58.35
2022-10-13T02:29:59.511Z,57.95
2022-10-13T02:32:26.069Z,58.53
2022-10-13T02:34:52.669Z,58.33
2022-10-13T02:37:19.535Z,58.22
2022-10-13T02:39:46.113Z,58.16
2022-10-13T02:42:12.700Z,58.64
2022-10-13T02:44:40.148Z,58.45
2022-10-13T02:47:06.725Z,58.51
2022-10-13T02:49:33.287Z,58.64
2022-10-13T02:51:59.857Z,58.39
2022-10-13T02:54:26.397Z,58.04
2022-10-13T02:56:53.033Z,58.63
2022-10-13T02:59:19.636Z,58.11
2022-10-13T03:01:46.475Z,58.55
2022-10-13T03:04:13.075Z,58.57
2022-10-13T03:06:39.654Z,58.76
2022-10-13T03:09:06.322Z,58.31
2022-10-13T03:11:32.893Z,58.62
2022-10-13T03:13:59.477Z,58.71
2022-10-13T03:16:26.157Z,58.41
2022-10-13T03:18:52.699Z,58.97
2022-10-13T03:21:19.273Z,58.62
2022-10-13T03:23:45.885Z,58.36
2022-10-13T03:26:12.695Z,58.66
2022-10-13T03:28:39.354Z,58.45
2022-10-13T03:31:08.252Z,58.42
2022-10-13T03:33:34.922Z,58.45
2022-10-13T03:36:04.093Z,58.52
2022-10-13T03:38:31.713Z,58.13
2022-10-13T03:40:58.281Z,58.80
2022-10-13T03:43:25.124Z,58.35
2022-10-13T03:45:58.735Z,58.50
2022-10-13T03:48:25.746Z,58.67
2022-10-13T03:50:52.632Z,58.45
2022-10-13T03:53:19.297Z,58.73
2022-10-13T03:55:50.789Z,58.45
2022-10-13T03:58:17.616Z,58.37
2022-10-13T04:00:45.203Z,58.76
2022-10-13T04:03:12.120Z,58.62
2022-10-13T04:05:38.793Z,58.69
2022-10-13T04:08:05.860Z,58.63
2022-10-13T04:10:32.607Z,58.45
2022-10-13T04:12:59.861Z,58.53
2022-10-13T04:15:26.545Z,58.51
2022-10-13T04:17:53.144Z,58.67
2022-10-13T04:20:19.704Z,58.54
2022-10-13T04:22:46.296Z,58.77
2022-10-13T04:25:12.905Z,58.69
2022-10-13T04:27:39.590Z,58.67
2022-10-13T04:30:07.060Z,58.44
2022-10-13T04:32:33.702Z,58.22
2022-10-13T04:35:00.844Z,58.31
2022-10-13T04:37:27.401Z,58.59
2022-10-13T04:39:53.979Z,58.50
2022-10-13T04:42:20.833Z,57.95
2022-10-13T04:44:47.683Z,58.25
2022-10-13T04:47:14.261Z,57.71
2022-10-13T04:49:40.849Z,58.25
2022-10-13T04:52:07.683Z,58.04
2022-10-13T04:54:34.250Z,57.78
2022-10-13T04:57:00.802Z,57.58
2022-10-13T04:59:27.447Z,57.92
2022-10-13T05:01:54.019Z,57.82
2022-10-13T05:04:20.591Z,58.36
2022-10-13T05:07:15.893Z,58.14
2022-10-13T05:09:33.768Z,57.74
2022-10-13T05:12:00.321Z,57.98
2022-10-13T05:14:26.914Z,58.04
2022-10-13T05:16:53.593Z,58.11
2022-10-13T05:19:20.477Z,57.99
2022-10-13T05:21:47.050Z,57.85
2022-10-13T05:24:15.715Z,58.37
2022-10-13T05:26:42.299Z,57.77
2022-10-13T05:29:09.273Z,57.93
2022-10-13T05:31:36.376Z,58.00
2022-10-13T05:34:03.138Z,57.93
2022-10-13T05:36:32.001Z,57.70
2022-10-13T05:39:00.601Z,58.23
2022-10-13T05:41:27.717Z,57.84
2022-10-13T05:43:58.976Z,57.84
2022-10-13T05:46:26.840Z,57.36
2022-10-13T05:48:53.864Z,58.12
2022-10-13T05:51:35.781Z,57.68
2022-10-13T05:54:06.384Z,57.87
2022-10-13T05:56:40.244Z,58.04
2022-10-13T05:59:08.338Z,58.49
2022-10-13T06:01:39.050Z,58.01
2022-10-13T06:04:09.851Z,58.24
2022-10-13T06:06:36.483Z,58.06
2022-10-13T06:09:03.324Z,58.34
2022-10-13T06:11:29.940Z,58.11
2022-10-13T06:13:56.506Z,58.12
2022-10-13T06:16:23.099Z,58.24
2022-10-13T06:18:49.673Z,58.47
2022-10-13T06:21:17.333Z,58.00
2022-10-13T06:23:43.913Z,58.30
2022-10-13T06:26:10.503Z,58.81
2022-10-13T06:28:37.130Z,58.32
2022-10-13T06:31:05.649Z,58.28
2022-10-13T06:33:32.625Z,58.77
2022-10-13T06:36:06.131Z,58.72
2022-10-13T06:38:33.368Z,59.01
2022-10-13T06:41:04.094Z,58.89
2022-10-13T06:43:38.630Z,59.05
2022-10-13T06:46:07.035Z,58.78
2022-10-13T06:48:33.621Z,59.14
2022-10-13T06:51:05.295Z,58.60
2022-10-13T06:53:32.042Z,58.93
2022-10-13T06:55:59.813Z,58.54
2022-10-13T06:58:26.824Z,59.04
2022-10-13T07:00:53.911Z,59.07
2022-10-13T07:03:20.878Z,58.71
2022-10-13T07:05:47.493Z,59.00
2022-10-13T07:08:14.127Z,59.12
2022-10-13T07:10:40.907Z,59.33
2022-10-13T07:13:07.894Z,58.96
2022-10-13T07:15:37.806Z,58.88
2022-10-13T07:18:04.395Z,59.13
2022-10-13T07:20:30.939Z,59.03
2022-10-13T07:22:57.553Z,59.35
2022-10-13T07:25:24.117Z,59.09
2022-10-13T07:27:50.694Z,58.85
2022-10-13T07:30:17.289Z,59.16
2022-10-13T07:32:44.711Z,58.96
2022-10-13T07:35:11.856Z,59.31
2022-10-13T07:37:38.634Z,59.49
2022-10-13T07:40:06.351Z,59.90
2022-10-13T07:42:33.085Z,59.03
2022-10-13T07:44:59.776Z,59.02
2022-10-13T07:47:26.368Z,58.98
2022-10-13T07:49:54.677Z,59.54
2022-10-13T07:52:22.014Z,59.60
2022-10-13T07:54:48.842Z,59.30
2022-10-13T07:57:15.430Z,59.65
2022-10-13T07:59:42.002Z,59.33
2022-10-13T08:02:09.829Z,59.53
2022-10-13T08:04:36.406Z,59.11
2022-10-13T08:07:04.296Z,59.24
2022-10-13T08:09:30.921Z,59.80
2022-10-13T08:12:00.617Z,59.44
2022-10-13T08:14:29.132Z,59.73
2022-10-13T08:16:56.205Z,59.71
2022-10-13T08:19:23.328Z,60.07
2022-10-13T08:21:58.327Z,60.10
2022-10-13T08:24:25.734Z,60.24
2022-10-13T08:26:52.298Z,59.75
2022-10-13T08:29:23.542Z,60.02
2022-10-13T08:31:52.850Z,60.26
2022-10-13T08:34:20.088Z,59.74
2022-10-13T08:36:47.324Z,59.73
2022-10-13T08:39:14.139Z,59.31
2022-10-13T08:41:46.422Z,59.73
2022-10-13T08:47:16.109Z,59.75
2022-10-13T08:49:43.750Z,60.28
2022-10-13T08:52:26.275Z,60.27
2022-10-13T08:54:54.640Z,60.18
2022-10-13T08:57:21.458Z,59.91
2022-10-13T08:59:49.038Z,60.47
2022-10-13T09:02:29.973Z,60.29
2022-10-13T09:04:58.512Z,60.55
2022-10-13T09:07:28.193Z,59.85
2022-10-13T09:09:55.513Z,59.93
2022-10-13T09:12:24.940Z,60.26
2022-10-13T09:15:01.514Z,60.26
2022-10-13T09:17:29.545Z,60.04
2022-10-13T09:20:08.012Z,59.92
2022-10-13T09:22:38.833Z,60.66
2022-10-13T09:25:08.847Z,60.07
2022-10-13T09:28:02.700Z,60.31
2022-10-13T09:30:42.191Z,59.99
2022-10-13T09:33:09.068Z,60.86
2022-10-13T09:35:45.894Z,60.84
2022-10-13T09:38:20.984Z,61.14
2022-10-13T09:41:14.976Z,60.19
2022-10-13T09:43:47.636Z,60.76
2022-10-13T09:46:32.210Z,60.08
2022-10-13T09:49:24.929Z,60.35
2022-10-13T09:51:51.586Z,60.38
2022-10-13T09:54:51.472Z,60.36
2022-10-13T09:57:24.686Z,61.27
2022-10-13T09:59:53.588Z,60.60
2022-10-13T10:02:32.697Z,60.97
2022-10-13T10:05:06.375Z,61.22
2022-10-13T10:07:33.263Z,61.36
2022-10-13T10:10:47.477Z,61.10
2022-10-13T10:13:15.076Z,61.14
2022-10-13T10:15:50.181Z,60.96
2022-10-13T10:18:28.197Z,60.92
2022-10-13T10:21:00.688Z,61.09
2022-10-13T10:23:49.476Z,60.86
2022-10-13T10:26:42.599Z,60.87
2022-10-13T10:29:22.610Z,60.84
2022-10-13T10:32:25.079Z,60.77
2022-10-13T10:35:04.579Z,61.08
2022-10-13T10:38:04.222Z,60.23
2022-10-13T10:40:42.819Z,60.44
2022-10-13T10:43:43.181Z,60.91
2022-10-13T10:46:21.460Z,60.54
2022-10-13T10:48:50.603Z,60.56
2022-10-13T10:51:17.946Z,60.21
2022-10-13T10:53:59.597Z,60.23
2022-10-13T10:56:38.633Z,59.51
2022-10-13T10:59:18.066Z,60.06
2022-10-13T11:02:08.875Z,59.61
2022-10-13T11:04:41.307Z,59.34
2022-10-13T11:07:13.319Z,59.50
2022-10-13T11:09:42.665Z,60.32
2022-10-13T11:12:45.681Z,60.21
2022-10-13T11:15:43.690Z,59.73
2022-10-13T11:18:47.872Z,60.00
2022-10-13T11:21:14.589Z,60.36
2022-10-13T11:23:47.071Z,60.26
2022-10-13T11:26:41.385Z,60.58
2022-10-13T11:29:19.902Z,59.78
2022-10-13T11:31:52.770Z,60.29
2022-10-13T11:34:29.154Z,60.01
2022-10-13T11:36:57.494Z,60.58
2022-10-13T11:39:27.880Z,60.04
2022-10-13T11:42:22.770Z,60.21
2022-10-13T11:44:58.437Z,60.26
2022-10-13T11:47:34.083Z,60.63
2022-10-13T11:50:06.320Z,60.40
2022-10-13T11:52:57.385Z,60.13
2022-10-13T11:55:37.213Z,60.17
2022-10-13T11:58:22.250Z,60.57
2022-10-13T12:00:54.799Z,60.84
2022-10-13T12:03:43.407Z,61.04
2022-10-13T12:06:35.653Z,60.82
2022-10-13T12:09:05.217Z,61.07
2022-10-13T12:11:38.410Z,60.80
2022-10-13T12:14:07.669Z,61.47
2022-10-13T12:16:34.367Z,60.78
2022-10-13T12:19:19.960Z,60.87
2022-10-13T12:21:58.617Z,61.17
2022-10-13T12:24:27.226Z,61.48
2022-10-13T12:26:54.176Z,61.35
2022-10-13T12:29:25.266Z,60.74
2022-10-13T12:31:52.059Z,61.52
2022-10-13T12:34:29.133Z,61.69
2022-10-13T12:37:04.502Z,60.99
2022-10-13T12:39:34.431Z,61.79
2022-10-13T12:42:02.458Z,61.55
2022-10-13T12:44:31.017Z,61.49
2022-10-13T12:47:03.677Z,61.26
2022-10-13T12:49:35.242Z,60.99
2022-10-13T12:52:23.814Z,61.13
2022-10-13T12:54:52.764Z,61.54
2022-10-13T12:57:21.539Z,60.78
2022-10-13T12:59:48.353Z,61.40
2022-10-13T13:02:24.939Z,60.97
2022-10-13T13:04:51.763Z,61.26
2022-10-13T13:07:31.667Z,61.10
2022-10-13T13:10:19.137Z,61.36
2022-10-13T13:12:48.387Z,60.88
2022-10-13T13:15:36.635Z,61.32
2022-10-13T13:18:39.425Z,61.27
2022-10-13T13:21:07.742Z,61.13
2022-10-13T13:23:35.587Z,61.39
2022-10-13T13:26:16.490Z,61.18
2022-10-13T13:28:49.024Z,61.38
2022-10-13T13:31:17.245Z,61.96
2022-10-13T13:33:44.125Z,61.79
2022-10-13T13:36:30.938Z,61.39
2022-10-13T13:38:57.532Z,61.64
2022-10-13T13:41:27.724Z,61.48
2022-10-13T13:43:54.311Z,61.58
2022-10-13T13:46:25.505Z,61.87
2022-10-13T13:48:52.091Z,61.55
2022-10-13T13:51:19.037Z,61.44
2022-10-13T13:53:46.011Z,61.91
2022-10-13T13:56:19.925Z,61.78
2022-10-13T13:58:46.933Z,61.66
2022-10-13T14:01:14.437Z,61.54
2022-10-13T14:03:41.014Z,61.87
2022-10-13T14:06:07.738Z,61.98
2022-10-13T14:08:35.733Z,62.10
2022-10-13T14:11:06.241Z,61.70
2022-10-13T14:13:33.831Z,61.88
2022-10-13T14:16:01.649Z,61.71
2022-10-13T14:18:28.342Z,62.01
2022-10-13T14:20:54.914Z,61.86
2022-10-13T14:23:21.540Z,62.45
2022-10-13T14:25:48.154Z,62.32
2022-10-13T14:28:18.284Z,61.76
2022-10-13T14:30:45.188Z,62.48
2022-10-13T14:33:11.754Z,61.42
2022-10-13T14:35:38.337Z,61.33
2022-10-13T14:38:05.130Z,61.39
2022-10-13T14:40:31.731Z,61.04
2022-10-13T14:42:58.309Z,61.05
2022-10-13T14:45:24.949Z,61.35
2022-10-13T14:47:53.083Z,61.02
2022-10-13T14:50:20.384Z,60.58
2022-10-13T14:52:46.957Z,61.07
2022-10-13T14:55:13.547Z,60.30
2022-10-13T14:57:40.363Z,59.74
2022-10-13T15:00:07.737Z,60.37
2022-10-13T15:02:34.354Z,60.62
2022-10-13T15:05:01.123Z,59.68
2022-10-13T15:07:27.709Z,60.63
2022-10-13T15:10:04.864Z,60.65
2022-10-13T15:12:32.289Z,61.25
2022-10-13T15:14:58.871Z,61.44
2022-10-13T15:17:25.657Z,61.44
2022-10-13T15:19:52.245Z,62.00
2022-10-13T15:22:19.155Z,61.79
2022-10-13T15:24:46.018Z,62.16
2022-10-13T15:27:12.582Z,61.66
2022-10-13T15:29:39.199Z,62.16
2022-10-13T15:32:10.557Z,62.24
2022-10-13T15:34:40.244Z,62.70
2022-10-13T15:37:07.308Z,62.41
2022-10-13T15:39:34.110Z,62.39
2022-10-13T15:42:00.754Z,62.14
2022-10-13T15:44:27.812Z,62.32
2022-10-13T15:47:07.424Z,62.72
2022-10-13T15:49:39.318Z,62.66
2022-10-13T15:52:06.001Z,63.25
2022-10-13T15:54:32.667Z,62.90
2022-10-13T15:56:59.901Z,63.40
2022-10-13T15:59:26.520Z,63.49
2022-10-13T16:01:53.074Z,63.38
2022-10-13T16:04:19.885Z,63.61
2022-10-13T16:06:47.110Z,64.71
2022-10-13T16:09:13.721Z,65.06
2022-10-13T16:11:40.794Z,65.67
2022-10-13T16:14:07.504Z,66.29
2022-10-13T16:16:34.089Z,66.13
2022-10-13T16:19:00.672Z,66.78
2022-10-13T16:21:27.522Z,66.26
2022-10-13T16:23:54.345Z,66.59
2022-10-13T16:26:22.286Z,66.96
2022-10-13T16:28:49.058Z,67.02
2022-10-13T16:31:16.963Z,66.78
2022-10-13T16:33:45.564Z,66.70
2022-10-13T16:36:17.748Z,66.76
2022-10-13T16:38:46.670Z,66.24
2022-10-13T16:41:15.411Z,66.84
2022-10-13T16:43:42.513Z,66.25
2022-10-13T16:46:13.362Z,66.46
2022-10-13T16:48:40.876Z,66.87
2022-10-13T16:51:11.419Z,67.38
2022-10-13T16:53:38.755Z,66.56
2022-10-13T16:56:06.659Z,67.02
2022-10-13T16:58:33.623Z,66.42
2022-10-13T17:01:11.091Z,66.72
2022-10-13T17:03:39.057Z,66.33
2022-10-13T17:06:06.736Z,66.88
2022-10-13T17:08:33.396Z,66.13
2022-10-13T17:11:00.582Z,66.94
2022-10-13T17:13:27.167Z,66.86
2022-10-13T17:15:54.872Z,66.89
2022-10-13T17:18:21.983Z,66.59
2022-10-13T17:20:51.705Z,66.43
2022-10-13T17:23:18.271Z,66.93
2022-10-13T17:25:44.953Z,66.36
2022-10-13T17:28:11.522Z,66.84
2022-10-13T17:30:38.137Z,66.48
2022-10-13T17:33:04.778Z,66.27
2022-10-13T17:35:31.688Z,66.92
2022-10-13T17:37:58.359Z,66.60
2022-10-13T17:40:25.227Z,66.74
2022-10-13T17:42:51.878Z,66.46
2022-10-13T17:45:18.459Z,66.47
2022-10-13T17:47:51.719Z,66.71
2022-10-13T17:50:18.916Z,67.10
2022-10-13T17:52:45.704Z,66.78
2022-10-13T17:55:12.549Z,67.02
2022-10-13T17:57:39.157Z,66.69
2022-10-13T18:00:06.535Z,66.97
2022-10-13T18:02:33.216Z,67.10
2022-10-13T18:04:59.789Z,66.58
2022-10-13T18:07:26.350Z,66.37
2022-10-13T18:09:53.334Z,66.92
2022-10-13T18:12:20.178Z,66.61
2022-10-13T18:14:46.880Z,66.41
2022-10-13T18:17:13.484Z,66.93
2022-10-13T18:19:40.583Z,67.10
2022-10-13T18:22:07.186Z,66.58
2022-10-13T18:24:33.822Z,66.99
2022-10-13T18:27:00.778Z,67.01
2022-10-13T18:29:27.418Z,66.77
2022-10-13T18:31:56.188Z,66.63
2022-10-13T18:34:23.376Z,66.77
2022-10-13T18:36:52.736Z,66.39
2022-10-13T18:39:22.302Z,66.80
2022-10-13T18:41:50.259Z,66.97
2022-10-13T18:44:16.915Z,66.23
2022-10-13T18:46:43.621Z,67.04
2022-10-13T18:49:14.822Z,66.93
2022-10-13T18:51:41.521Z,66.85
2022-10-13T18:54:08.341Z,66.77
2022-10-13T18:56:36.987Z,66.69
2022-10-13T18:59:05.433Z,66.40
2022-10-13T19:01:33.962Z,66.38
2022-10-13T19:04:00.577Z,66.29
2022-10-13T19:06:28.174Z,66.64
2022-10-13T19:08:58.537Z,66.36
2022-10-13T19:11:25.252Z,66.13
2022-10-13T19:13:51.832Z,65.84
2022-10-13T19:16:20.242Z,66.69
2022-10-13T19:18:46.982Z,66.28
2022-10-13T19:21:13.993Z,66.44
2022-10-13T19:23:41.147Z,66.66
2022-10-13T19:26:19.803Z,66.44
2022-10-13T19:28:46.687Z,65.75
2022-10-13T19:31:17.173Z,66.30
2022-10-13T19:33:45.246Z,65.98
2022-10-13T19:36:20.118Z,65.78
2022-10-13T19:38:46.703Z,66.15
2022-10-13T19:41:13.295Z,66.00
2022-10-13T19:43:39.865Z,66.09
2022-10-13T19:46:07.415Z,65.66
2022-10-13T19:48:34.618Z,66.03
2022-10-13T19:51:02.167Z,65.92
2022-10-13T19:53:28.746Z,65.54
2022-10-13T19:55:55.350Z,65.34
2022-10-13T19:58:22.102Z,65.92
2022-10-13T20:00:49.943Z,65.57
2022-10-13T20:03:16.792Z,65.35
2022-10-13T20:05:43.630Z,65.28
2022-10-13T20:08:11.755Z,65.86
2022-10-13T20:10:42.516Z,65.81
2022-10-13T20:13:10.310Z,65.36
2022-10-13T20:15:41.730Z,65.52
2022-10-13T20:18:10.031Z,65.93
2022-10-13T20:20:36.882Z,65.52
2022-10-13T20:23:03.530Z,65.86
2022-10-13T20:25:30.206Z,65.51
2022-10-13T20:27:56.813Z,65.96
2022-10-13T20:30:23.612Z,65.89
2022-10-13T20:32:50.215Z,65.64
2022-10-13T20:35:16.916Z,65.55
2022-10-13T20:37:43.496Z,65.94
2022-10-13T20:40:10.403Z,66.17
2022-10-13T20:42:37.000Z,65.75
2022-10-13T20:45:03.971Z,65.88
2022-10-13T20:47:30.546Z,65.34
2022-10-13T20:49:57.205Z,65.20
2022-10-13T20:52:24.201Z,65.89
2022-10-13T20:54:50.783Z,65.88
2022-10-13T20:57:17.385Z,65.83
2022-10-13T20:59:44.028Z,65.77
2022-10-13T21:02:13.401Z,65.98
2022-10-13T21:04:40.035Z,65.30
2022-10-13T21:07:06.573Z,65.81
2022-10-13T21:09:35.417Z,65.83
2022-10-13T21:12:02.002Z,65.24
2022-10-13T21:14:28.601Z,65.79
2022-10-13T21:16:55.349Z,65.63
2022-10-13T21:19:21.995Z,65.54
2022-10-13T21:21:48.574Z,65.84
2022-10-13T21:24:15.182Z,65.67
2022-10-13T21:26:41.769Z,65.40
2022-10-13T21:29:08.464Z,64.98
2022-10-13T21:31:36.241Z,65.62
2022-10-13T21:34:03.251Z,66.00
2022-10-13T21:36:31.510Z,65.53
2022-10-13T21:39:00.462Z,65.34
2022-10-13T21:41:27.835Z,65.42
2022-10-13T21:43:54.823Z,65.48
2022-10-13T21:46:24.019Z,65.87
2022-10-13T21:48:53.100Z,65.88
2022-10-13T21:51:29.662Z,65.86
2022-10-13T21:53:58.838Z,65.43
2022-10-13T21:56:26.247Z,65.21
2022-10-13T21:58:53.914Z,65.00
2022-10-13T22:01:21.049Z,65.53
2022-10-13T22:03:48.582Z,65.08
2022-10-13T22:06:19.367Z,65.25
2022-10-13T22:08:48.775Z,65.05
2022-10-13T22:11:16.463Z,65.76
2022-10-13T22:13:43.080Z,65.29
2022-10-13T22:16:15.449Z,65.64
2022-10-13T22:18:42.500Z,65.01
2022-10-13T22:21:15.822Z,65.14
2022-10-13T22:23:42.620Z,65.36
2022-10-13T22:26:09.838Z,66.07
2022-10-13T22:28:37.614Z,65.03
2022-10-13T22:31:09.450Z,65.09
2022-10-13T22:33:37.828Z,65.48
2022-10-13T22:36:12.562Z,65.25
2022-10-13T22:38:39.142Z,65.84
2022-10-13T22:41:06.888Z,66.14
2022-10-13T22:43:34.126Z,65.56
2022-10-13T22:46:02.030Z,65.38
2022-10-13T22:48:28.855Z,65.72
2022-10-13T22:50:55.442Z,65.80
2022-10-13T22:53:22.176Z,65.76
2022-10-13T22:55:48.772Z,65.28
2022-10-13T22:58:15.356Z,65.56
2022-10-13T23:00:41.937Z,65.44
2022-10-13T23:03:13.419Z,65.80
2022-10-13T23:05:46.626Z,65.39
2022-10-13T23:08:14.179Z,65.97
2022-10-13T23:10:40.859Z,66.18
2022-10-13T23:13:07.464Z,65.15
2022-10-13T23:15:34.047Z,65.76
2022-10-13T23:18:00.609Z,65.84
2022-10-13T23:20:27.195Z,65.91
2022-10-13T23:22:53.773Z,65.55
2022-10-13T23:25:20.353Z,65.21
2022-10-13T23:27:46.926Z,65.57
2022-10-13T23:30:13.720Z,65.72
2022-10-13T23:32:40.370Z,65.55
2022-10-13T23:35:07.136Z,65.59
2022-10-13T23:37:33.712Z,65.87
2022-10-13T23:40:00.303Z,65.69
2022-10-13T23:42:26.873Z,65.80
2022-10-13T23:44:53.454Z,65.44
2022-10-13T23:47:20.406Z,65.19
2022-10-13T23:49:47.137Z,65.80
2022-10-13T23:52:13.720Z,65.89
2022-10-13T23:54:40.319Z,65.05
2022-10-13T23:57:06.965Z,64.97
2022-10-13T23:59:33.539Z,65.37
